Time;durP1;ratioP1;P1;durP2;ratioP2;P2;SDS_P1;SDS_P2;PMS_P1;PMS_P2;Temp;Humidity;BMP_temperature;BMP_pressure;BME280_temperature;BME280_humidity;BME280_pressure;Samples;Min_cycle;Max_cycle;Signal;HPM_P1;HPM_P2
2022/10/08 00:00:24;;;;;;;;;;;9.70;99.90;;;;;;5045502;28;20341;-80
2022/10/08 00:02:51;;;;;;;;;;;9.70;99.90;;;;;;5085184;28;20424;-79
2022/10/08 00:05:17;;;;;;;;;;;9.70;99.90;;;;;;5077580;28;20040;-79
2022/10/08 00:07:44;;;;;;;;;;;9.70;99.90;;;;;;5078691;28;20086;-79
2022/10/08 00:10:10;;;;;;;;;;;9.70;99.90;;;;;;5076293;28;19955;-80
2022/10/08 00:12:35;;;;;;;;;;;9.70;99.90;;;;;;5076520;28;19976;-80
2022/10/08 00:15:01;;;;;;;;;;;9.80;99.90;;;;;;5078018;28;19997;-79
2022/10/08 00:17:27;;;;;;;;;;;9.90;99.90;;;;;;5070911;28;20027;-79
2022/10/08 00:19:53;;;;;;;;;;;10.00;99.90;;;;;;5081042;28;20441;-80
2022/10/08 00:22:18;;;;;;;;;;;10.00;99.90;;;;;;5074372;28;19995;-79
2022/10/08 00:24:45;;;;;;;;;;;10.10;99.90;;;;;;5073180;28;19922;-79
2022/10/08 00:27:11;;;;;;;;;;;10.10;99.90;;;;;;5081467;28;19923;-79
2022/10/08 00:29:37;;;;;;;;;;;10.10;99.90;;;;;;5078696;28;19916;-82
2022/10/08 00:32:02;;;;;;;;;;;10.10;99.90;;;;;;5061066;28;19928;-80
2022/10/08 00:34:28;;;;;;;;;;;10.20;99.90;;;;;;5055507;28;19952;-79
2022/10/08 00:36:54;;;;;;;;;;;10.20;99.90;;;;;;5055050;28;20007;-80
2022/10/08 00:39:21;;;;;;;;;;;10.20;99.90;;;;;;5049950;28;20580;-80
2022/10/08 00:41:50;;;;;;;;;;;10.30;99.90;;;;;;5056777;28;19920;-80
2022/10/08 00:44:34;;;;;;;;;;;10.20;99.90;;;;;;5053610;28;20005;-80
2022/10/08 00:47:00;;;;;;;;;;;10.30;99.90;;;;;;5054444;28;19936;-80
2022/10/08 00:49:25;;;;;;;;;;;10.30;99.90;;;;;;5061311;28;20386;-80
2022/10/08 00:51:53;;;;;;;;;;;10.30;99.90;;;;;;5054184;28;20279;-79
2022/10/08 00:54:20;;;;;;;;;;;10.30;99.90;;;;;;5062753;28;19913;-80
2022/10/08 00:56:51;;;;;;;;;;;10.30;99.90;;;;;;5064343;28;19955;-79
2022/10/08 00:59:16;;;;;;;;;;;10.30;99.90;;;;;;5056079;28;19998;-80
2022/10/08 01:01:42;;;;;;;;;;;10.30;99.90;;;;;;5050945;28;19974;-79
2022/10/08 01:04:09;;;;;;;;;;;10.30;99.90;;;;;;5057920;28;19909;-80
2022/10/08 01:06:57;;;;;;;;;;;10.30;99.90;;;;;;5053877;28;20683;-80
2022/10/08 01:09:28;;;;;;;;;;;10.30;99.90;;;;;;5059281;28;20336;-80
2022/10/08 01:12:00;;;;;;;;;;;10.30;99.90;;;;;;5047852;28;19916;-80
2022/10/08 01:14:34;;;;;;;;;;;10.30;99.90;;;;;;5051078;28;20635;-80
2022/10/08 01:17:06;;;;;;;;;;;10.30;99.90;;;;;;5053856;28;19912;-80
2022/10/08 01:19:34;;;;;;;;;;;10.30;99.90;;;;;;5056723;28;19919;-80
2022/10/08 01:22:16;;;;;;;;;;;10.30;99.90;;;;;;5051067;28;19971;-80
2022/10/08 01:27:37;;;;;;;;;;;10.20;99.90;;;;;;5055749;28;19919;-80
2022/10/08 01:30:05;;;;;;;;;;;10.20;99.90;;;;;;5048069;28;19921;-80
2022/10/08 01:32:37;;;;;;;;;;;10.20;99.90;;;;;;5058868;28;19924;-81
2022/10/08 01:35:08;;;;;;;;;;;10.20;99.90;;;;;;5043566;28;20275;-80
2022/10/08 01:37:36;;;;;;;;;;;10.20;99.90;;;;;;5049797;28;19940;-80
2022/10/08 01:40:03;;;;;;;;;;;10.20;99.90;;;;;;5051191;28;19916;-80
2022/10/08 01:42:31;;;;;;;;;;;10.30;99.90;;;;;;5050886;28;20401;-80
2022/10/08 01:44:59;;;;;;;;;;;10.30;99.90;;;;;;5056347;28;20594;-80
2022/10/08 01:47:27;;;;;;;;;;;10.20;99.90;;;;;;5065439;28;19920;-80
2022/10/08 01:49:57;;;;;;;;;;;10.20;99.90;;;;;;5056779;28;19924;-80
2022/10/08 01:52:24;;;;;;;;;;;10.20;99.90;;;;;;5061061;28;20102;-80
2022/10/08 01:54:52;;;;;;;;;;;10.20;99.90;;;;;;5060547;28;19920;-80
2022/10/08 01:57:18;;;;;;;;;;;10.30;99.90;;;;;;5062439;28;19995;-80
2022/10/08 01:59:46;;;;;;;;;;;10.30;99.90;;;;;;5055527;28;20027;-79
2022/10/08 02:02:12;;;;;;;;;;;10.30;99.90;;;;;;5058211;28;19967;-80
2022/10/08 02:04:37;;;;;;;;;;;10.30;99.90;;;;;;5056468;28;20355;-80
2022/10/08 02:07:06;;;;;;;;;;;10.30;99.90;;;;;;5052596;28;20422;-80
2022/10/08 02:09:34;;;;;;;;;;;10.30;99.90;;;;;;5053881;28;19917;-81
2022/10/08 02:11:59;;;;;;;;;;;10.40;99.90;;;;;;5054339;28;20015;-80
2022/10/08 02:14:26;;;;;;;;;;;10.40;99.90;;;;;;5051286;28;20028;-80
2022/10/08 02:17:01;;;;;;;;;;;10.30;99.90;;;;;;5065225;28;19923;-81
2022/10/08 02:19:33;;;;;;;;;;;10.40;99.90;;;;;;5059018;28;20317;-81
2022/10/08 02:22:00;;;;;;;;;;;10.40;99.90;;;;;;5052871;28;19917;-80
2022/10/08 02:24:29;;;;;;;;;;;10.40;99.90;;;;;;5058690;28;20019;-81
2022/10/08 02:26:56;;;;;;;;;;;10.40;99.90;;;;;;5063818;28;20011;-83
2022/10/08 02:29:22;;;;;;;;;;;10.40;99.90;;;;;;5057895;28;20282;-80
2022/10/08 02:31:47;;;;;;;;;;;10.40;99.90;;;;;;5068573;28;19988;-79
2022/10/08 02:34:31;;;;;;;;;;;10.40;99.90;;;;;;5079346;28;19917;-80
2022/10/08 02:37:15;;;;;;;;;;;10.30;99.90;;;;;;5081135;28;19919;-80
2022/10/08 02:39:42;;;;;;;;;;;10.30;99.90;;;;;;5075802;28;19939;-82
2022/10/08 02:42:10;;;;;;;;;;;10.30;99.90;;;;;;5081220;28;19966;-82
2022/10/08 02:44:39;;;;;;;;;;;10.20;99.90;;;;;;5020670;28;1813238;-80
2022/10/08 02:47:07;;;;;;;;;;;10.20;99.90;;;;;;5081936;28;19913;-81
2022/10/08 02:49:39;;;;;;;;;;;10.20;99.90;;;;;;5079933;28;20397;-81
2022/10/08 02:52:07;;;;;;;;;;;10.20;99.90;;;;;;5077300;28;19921;-80
2022/10/08 02:54:34;;;;;;;;;;;10.20;99.90;;;;;;5082708;28;19920;-80
2022/10/08 02:57:00;;;;;;;;;;;10.30;99.90;;;;;;5072889;28;19923;-80
2022/10/08 02:59:25;;;;;;;;;;;10.30;99.90;;;;;;5080024;28;19920;-80
2022/10/08 03:01:58;;;;;;;;;;;10.30;99.90;;;;;;5072022;28;20699;-80
2022/10/08 03:04:24;;;;;;;;;;;10.30;99.90;;;;;;5057823;28;19913;-80
2022/10/08 03:06:51;;;;;;;;;;;10.30;99.90;;;;;;5060133;28;20352;-80
2022/10/08 03:09:17;;;;;;;;;;;10.30;99.90;;;;;;5051712;28;19916;-80
2022/10/08 03:11:43;;;;;;;;;;;10.30;99.90;;;;;;5060877;28;19916;-80
2022/10/08 03:14:11;;;;;;;;;;;10.30;99.90;;;;;;5059039;28;19924;-82
2022/10/08 03:16:37;;;;;;;;;;;10.30;99.90;;;;;;5056833;28;19924;-82
2022/10/08 03:19:03;;;;;;;;;;;10.30;99.90;;;;;;5059774;28;19923;-80
2022/10/08 03:21:29;;;;;;;;;;;10.40;99.90;;;;;;5076238;28;19912;-80
2022/10/08 03:23:55;;;;;;;;;;;10.40;99.90;;;;;;5066373;28;19981;-80
2022/10/08 03:26:20;;;;;;;;;;;10.40;99.90;;;;;;5061292;28;20371;-80
2022/10/08 03:28:46;;;;;;;;;;;10.40;99.90;;;;;;5053421;28;19925;-80
2022/10/08 03:31:12;;;;;;;;;;;10.40;99.90;;;;;;5051586;28;19994;-80
2022/10/08 03:33:37;;;;;;;;;;;10.30;99.90;;;;;;5056123;28;20318;-79
2022/10/08 03:36:03;;;;;;;;;;;10.40;99.90;;;;;;5062715;28;19955;-80
2022/10/08 03:38:28;;;;;;;;;;;10.40;99.90;;;;;;5057993;28;20744;-80
2022/10/08 03:40:55;;;;;;;;;;;10.40;99.90;;;;;;5059228;28;19919;-80
2022/10/08 03:43:21;;;;;;;;;;;10.50;99.90;;;;;;5050925;28;20333;-80
2022/10/08 03:45:53;;;;;;;;;;;10.40;99.90;;;;;;5059804;28;19936;-80
2022/10/08 03:48:20;;;;;;;;;;;10.40;99.90;;;;;;5064667;28;19926;-80
2022/10/08 03:50:52;;;;;;;;;;;10.50;99.90;;;;;;5058250;28;19974;-80
2022/10/08 03:53:18;;;;;;;;;;;10.40;99.90;;;;;;5060614;28;19944;-79
2022/10/08 03:55:43;;;;;;;;;;;10.40;99.90;;;;;;5060037;28;19956;-80
2022/10/08 03:58:09;;;;;;;;;;;10.40;99.90;;;;;;5059065;28;20390;-80
2022/10/08 04:00:34;;;;;;;;;;;10.40;99.90;;;;;;5052112;28;19924;-79
2022/10/08 04:03:00;;;;;;;;;;;10.30;99.90;;;;;;5060002;28;19916;-80
2022/10/08 04:05:25;;;;;;;;;;;10.30;99.90;;;;;;5061143;28;19996;-80
2022/10/08 04:07:51;;;;;;;;;;;10.30;99.90;;;;;;5062401;28;19920;-80
2022/10/08 04:10:16;;;;;;;;;;;10.30;99.90;;;;;;5093548;28;19994;-81
2022/10/08 04:12:42;;;;;;;;;;;10.30;99.90;;;;;;5076702;28;19920;-80
2022/10/08 04:15:08;;;;;;;;;;;10.30;99.90;;;;;;5057608;28;19944;-80
2022/10/08 04:17:33;;;;;;;;;;;10.30;99.90;;;;;;5058359;28;19920;-78
2022/10/08 04:19:59;;;;;;;;;;;10.20;99.90;;;;;;5057139;28;19927;-80
2022/10/08 04:22:24;;;;;;;;;;;10.20;99.90;;;;;;5055053;28;19974;-80
2022/10/08 04:24:50;;;;;;;;;;;10.20;99.90;;;;;;5061612;28;19933;-81
2022/10/08 04:27:15;;;;;;;;;;;10.20;99.90;;;;;;5057951;28;20358;-80
2022/10/08 04:29:41;;;;;;;;;;;10.20;99.90;;;;;;5053457;28;20019;-80
2022/10/08 04:32:06;;;;;;;;;;;10.20;99.90;;;;;;5075126;28;19927;-80
2022/10/08 04:34:32;;;;;;;;;;;10.20;99.90;;;;;;5070829;28;19939;-80
2022/10/08 04:36:57;;;;;;;;;;;10.30;99.90;;;;;;5079706;28;20372;-83
2022/10/08 04:39:23;;;;;;;;;;;10.30;99.90;;;;;;5096824;28;19938;-82
2022/10/08 04:41:48;;;;;;;;;;;10.30;99.90;;;;;;5074070;28;19916;-79
2022/10/08 04:44:14;;;;;;;;;;;10.40;99.90;;;;;;5075757;28;19935;-80
2022/10/08 04:46:39;;;;;;;;;;;10.40;99.90;;;;;;5076857;28;19920;-80
2022/10/08 04:49:05;;;;;;;;;;;10.40;99.90;;;;;;5081607;28;19916;-80
2022/10/08 04:51:30;;;;;;;;;;;10.40;99.90;;;;;;5072818;28;20557;-81
2022/10/08 04:53:56;;;;;;;;;;;10.40;99.90;;;;;;5080288;28;19920;-80
2022/10/08 04:56:23;;;;;;;;;;;10.50;99.90;;;;;;5081559;28;19920;-81
2022/10/08 04:58:48;;;;;;;;;;;10.50;99.90;;;;;;5072690;28;20452;-79
2022/10/08 05:01:15;;;;;;;;;;;10.50;99.90;;;;;;5066961;28;19928;-80
2022/10/08 05:03:42;;;;;;;;;;;10.50;99.90;;;;;;5060438;28;19917;-83
2022/10/08 05:06:08;;;;;;;;;;;10.50;99.90;;;;;;5055862;28;19913;-80
2022/10/08 05:08:33;;;;;;;;;;;10.60;99.90;;;;;;5053933;28;19947;-80
2022/10/08 05:10:59;;;;;;;;;;;10.60;99.90;;;;;;5060443;28;19940;-83
2022/10/08 05:13:25;;;;;;;;;;;10.60;99.90;;;;;;5057264;28;19912;-82
2022/10/08 05:15:50;;;;;;;;;;;10.60;99.90;;;;;;5053669;28;19924;-79
2022/10/08 05:18:16;;;;;;;;;;;10.60;99.90;;;;;;5048988;28;19920;-79
2022/10/08 05:20:41;;;;;;;;;;;10.60;99.90;;;;;;5059506;28;19916;-80
2022/10/08 05:23:07;;;;;;;;;;;10.60;99.90;;;;;;5045622;28;19921;-80
2022/10/08 05:25:33;;;;;;;;;;;10.60;99.90;;;;;;5055704;28;20011;-80
2022/10/08 05:27:59;;;;;;;;;;;10.60;99.90;;;;;;5053426;28;19912;-80
2022/10/08 05:30:24;;;;;;;;;;;10.70;99.90;;;;;;5055036;28;19920;-80
2022/10/08 05:32:50;;;;;;;;;;;10.70;99.90;;;;;;5055036;28;20481;-81
2022/10/08 05:35:15;;;;;;;;;;;10.70;99.90;;;;;;5056546;28;20411;-83
2022/10/08 05:37:41;;;;;;;;;;;10.70;99.90;;;;;;5046712;28;19999;-80
2022/10/08 05:40:07;;;;;;;;;;;10.70;99.90;;;;;;5055157;28;19939;-81
2022/10/08 05:42:32;;;;;;;;;;;10.70;99.90;;;;;;5068538;28;20431;-80
2022/10/08 05:44:58;;;;;;;;;;;10.80;99.90;;;;;;5057205;28;19932;-80
2022/10/08 05:47:23;;;;;;;;;;;10.80;99.90;;;;;;5055592;28;20027;-81
2022/10/08 05:49:48;;;;;;;;;;;10.80;99.90;;;;;;5043462;28;19942;-81
2022/10/08 05:52:14;;;;;;;;;;;10.90;99.90;;;;;;5053122;28;19920;-81
2022/10/08 05:54:39;;;;;;;;;;;11.00;99.90;;;;;;5057417;28;20398;-81
2022/10/08 05:57:05;;;;;;;;;;;11.00;99.90;;;;;;5060361;28;19935;-80
2022/10/08 05:59:31;;;;;;;;;;;11.10;99.90;;;;;;5041861;28;20430;-81
2022/10/08 06:01:56;;;;;;;;;;;11.10;99.90;;;;;;5060282;28;20621;-81
2022/10/08 06:04:22;;;;;;;;;;;11.10;99.90;;;;;;5066588;28;19920;-81
2022/10/08 06:06:47;;;;;;;;;;;11.10;99.90;;;;;;5051286;28;19921;-82
2022/10/08 06:09:14;;;;;;;;;;;11.20;99.90;;;;;;5065660;28;20018;-81
2022/10/08 06:11:41;;;;;;;;;;;11.10;99.90;;;;;;5060691;28;19920;-82
2022/10/08 06:14:08;;;;;;;;;;;11.10;99.90;;;;;;5048335;28;19917;-82
2022/10/08 06:16:34;;;;;;;;;;;11.20;99.90;;;;;;5056520;28;20014;-82
2022/10/08 06:19:01;;;;;;;;;;;11.20;99.90;;;;;;5053129;28;20007;-82
2022/10/08 06:21:28;;;;;;;;;;;11.20;99.90;;;;;;5053466;28;20497;-82
2022/10/08 06:23:58;;;;;;;;;;;11.20;99.90;;;;;;5061353;28;19939;-82
2022/10/08 06:26:25;;;;;;;;;;;11.30;99.90;;;;;;5060459;28;19998;-82
2022/10/08 06:28:51;;;;;;;;;;;11.30;99.90;;;;;;5054490;28;19927;-82
2022/10/08 06:31:16;;;;;;;;;;;11.40;99.90;;;;;;5060683;28;19924;-82
2022/10/08 06:33:42;;;;;;;;;;;11.40;99.90;;;;;;5082610;28;19920;-82
2022/10/08 06:36:20;;;;;;;;;;;11.50;99.90;;;;;;5075539;28;19921;-82
2022/10/08 06:38:49;;;;;;;;;;;11.50;99.90;;;;;;5078272;28;19912;-82
2022/10/08 06:41:15;;;;;;;;;;;11.60;99.90;;;;;;5079022;28;19947;-82
2022/10/08 06:43:40;;;;;;;;;;;11.60;99.90;;;;;;5077131;28;19917;-82
2022/10/08 06:46:06;;;;;;;;;;;11.70;99.90;;;;;;5070515;28;19923;-83
2022/10/08 06:48:32;;;;;;;;;;;11.70;99.90;;;;;;5084964;28;20019;-82
2022/10/08 06:51:05;;;;;;;;;;;11.90;99.90;;;;;;5078291;28;19934;-81
2022/10/08 06:53:31;;;;;;;;;;;11.90;99.90;;;;;;5081699;28;19916;-82
2022/10/08 06:55:57;;;;;;;;;;;11.80;99.90;;;;;;5081902;28;19920;-81
2022/10/08 06:58:23;;;;;;;;;;;12.00;99.90;;;;;;5074972;28;19916;-81
2022/10/08 07:00:48;;;;;;;;;;;12.00;99.90;;;;;;5069160;28;19927;-81
2022/10/08 07:03:14;;;;;;;;;;;12.10;99.90;;;;;;5058035;28;19921;-82
2022/10/08 07:05:40;;;;;;;;;;;12.20;99.90;;;;;;5049268;28;20302;-80
2022/10/08 07:08:05;;;;;;;;;;;12.30;99.90;;;;;;5051411;28;20306;-81
2022/10/08 07:10:32;;;;;;;;;;;12.40;99.90;;;;;;5045030;28;19917;-81
2022/10/08 07:12:57;;;;;;;;;;;12.40;99.90;;;;;;5048747;28;19958;-81
2022/10/08 07:15:23;;;;;;;;;;;12.50;99.90;;;;;;5051629;28;19960;-81
2022/10/08 07:17:48;;;;;;;;;;;12.70;99.90;;;;;;5060603;28;20356;-83
2022/10/08 07:20:14;;;;;;;;;;;12.80;99.90;;;;;;5054693;28;19923;-83
2022/10/08 07:22:39;;;;;;;;;;;12.90;99.90;;;;;;5055135;28;19913;-83
2022/10/08 07:25:05;;;;;;;;;;;13.10;99.90;;;;;;5051868;28;20449;-84
2022/10/08 07:27:30;;;;;;;;;;;13.00;99.90;;;;;;5058793;28;19948;-83
2022/10/08 07:29:56;;;;;;;;;;;13.10;99.90;;;;;;5050427;28;19921;-82
2022/10/08 07:32:21;;;;;;;;;;;13.20;99.90;;;;;;5058230;28;19921;-83
2022/10/08 07:34:47;;;;;;;;;;;13.30;99.90;;;;;;5058243;28;19979;-83
2022/10/08 07:37:12;;;;;;;;;;;13.10;99.90;;;;;;5055251;28;19921;-83
2022/10/08 07:39:38;;;;;;;;;;;13.00;99.90;;;;;;5063087;28;20430;-82
2022/10/08 07:42:03;;;;;;;;;;;12.80;99.90;;;;;;5055288;28;19921;-84
2022/10/08 07:44:29;;;;;;;;;;;12.90;99.90;;;;;;5057253;28;19924;-81
2022/10/08 07:46:54;;;;;;;;;;;13.00;99.90;;;;;;5058185;28;19921;-81
2022/10/08 07:49:20;;;;;;;;;;;13.20;99.90;;;;;;5050712;28;20008;-81
2022/10/08 07:51:46;;;;;;;;;;;13.10;99.90;;;;;;5042405;28;19964;-82
2022/10/08 07:54:13;;;;;;;;;;;13.20;99.90;;;;;;5061057;28;19927;-82
2022/10/08 07:56:39;;;;;;;;;;;13.20;99.90;;;;;;5059728;28;19912;-82
2022/10/08 07:59:08;;;;;;;;;;;13.40;99.90;;;;;;5056875;28;19913;-80
2022/10/08 08:01:34;;;;;;;;;;;13.70;99.90;;;;;;5057569;28;19928;-82
2022/10/08 08:04:04;;;;;;;;;;;13.60;99.90;;;;;;5062462;28;20054;-81
2022/10/08 08:06:36;;;;;;;;;;;13.80;99.90;;;;;;5054235;28;19920;-82
2022/10/08 08:09:09;;;;;;;;;;;14.00;99.90;;;;;;5056508;28;19955;-82
2022/10/08 08:11:35;;;;;;;;;;;14.10;99.90;;;;;;5054490;28;19920;-82
2022/10/08 08:14:00;;;;;;;;;;;14.20;99.90;;;;;;5049635;28;19916;-81
2022/10/08 08:16:28;;;;;;;;;;;14.10;99.90;;;;;;5060443;28;19989;-82
2022/10/08 08:18:57;;;;;;;;;;;14.20;99.90;;;;;;5053426;28;19917;-81
2022/10/08 08:21:33;;;;;;;;;;;14.40;99.90;;;;;;5064601;28;20047;-81
2022/10/08 08:24:02;;;;;;;;;;;14.60;99.40;;;;;;5049289;28;19917;-80
2022/10/08 08:26:31;;;;;;;;;;;14.50;99.40;;;;;;5046511;28;19917;-80
2022/10/08 08:29:08;;;;;;;;;;;14.50;98.50;;;;;;5046605;28;19917;-81
2022/10/08 08:31:35;;;;;;;;;;;14.40;98.10;;;;;;5062970;28;19920;-81
2022/10/08 08:34:02;;;;;;;;;;;14.80;98.20;;;;;;5066219;28;19963;-80
2022/10/08 08:36:32;;;;;;;;;;;14.80;97.10;;;;;;5068785;28;20003;-80
2022/10/08 08:38:57;;;;;;;;;;;15.00;96.60;;;;;;5067189;28;20490;-79
2022/10/08 08:41:32;;;;;;;;;;;15.00;97.20;;;;;;5066325;28;19920;-80
2022/10/08 08:44:06;;;;;;;;;;;15.20;97.60;;;;;;5067937;28;19955;-80
2022/10/08 08:46:35;;;;;;;;;;;15.30;95.60;;;;;;5066336;28;19925;-79
2022/10/08 08:49:03;;;;;;;;;;;15.30;95.90;;;;;;5065909;28;19956;-79
2022/10/08 08:51:30;;;;;;;;;;;15.10;96.00;;;;;;5067625;28;19972;-79
2022/10/08 08:53:56;;;;;;;;;;;15.20;95.30;;;;;;5067275;28;19927;-78
2022/10/08 08:56:23;;;;;;;;;;;15.50;95.80;;;;;;5067455;28;19924;-80
2022/10/08 08:58:52;;;;;;;;;;;15.40;94.40;;;;;;5064705;28;19982;-78
2022/10/08 09:01:28;;;;;;;;;;;15.20;95.50;;;;;;5061860;28;19924;-78
2022/10/08 09:03:55;;;;;;;;;;;15.40;95.70;;;;;;5063008;28;19995;-80
2022/10/08 09:06:22;;;;;;;;;;;15.40;94.40;;;;;;5066659;28;19951;-80
2022/10/08 09:08:52;;;;;;;;;;;15.40;94.70;;;;;;5064601;28;20057;-79
2022/10/08 09:11:19;;;;;;;;;;;15.30;94.40;;;;;;5066523;28;19916;-79
2022/10/08 09:13:44;;;;;;;;;;;15.50;95.00;;;;;;5067615;28;19917;-80
2022/10/08 09:16:11;;;;;;;;;;;15.60;93.70;;;;;;5062890;28;19975;-79
2022/10/08 09:18:37;;;;;;;;;;;15.80;95.00;;;;;;5066032;28;19921;-79
2022/10/08 09:21:04;;;;;;;;;;;15.70;94.20;;;;;;5057535;28;19917;-79
2022/10/08 09:23:29;;;;;;;;;;;15.50;93.40;;;;;;5068884;28;19920;-81
2022/10/08 09:25:57;;;;;;;;;;;15.70;93.90;;;;;;5065519;28;20299;-77
2022/10/08 09:28:37;;;;;;;;;;;15.70;93.50;;;;;;5067575;28;19917;-78
2022/10/08 09:31:11;;;;;;;;;;;16.10;92.70;;;;;;5066353;28;20003;-78
2022/10/08 09:33:38;;;;;;;;;;;16.40;92.80;;;;;;5067903;28;20413;-77
2022/10/08 09:36:03;;;;;;;;;;;16.50;92.60;;;;;;5062492;28;20023;-78
2022/10/08 09:38:32;;;;;;;;;;;16.40;91.30;;;;;;5067369;28;20367;-78
2022/10/08 09:41:04;;;;;;;;;;;16.50;91.70;;;;;;5065612;28;19942;-77
2022/10/08 09:43:30;;;;;;;;;;;16.50;92.30;;;;;;5062319;28;19912;-78
2022/10/08 09:45:57;;;;;;;;;;;16.30;92.40;;;;;;5064176;28;19924;-78
2022/10/08 09:48:22;;;;;;;;;;;16.00;92.30;;;;;;5066022;28;19916;-78
2022/10/08 09:50:52;;;;;;;;;;;15.90;92.90;;;;;;5063159;28;19973;-78
2022/10/08 09:53:19;;;;;;;;;;;15.70;92.90;;;;;;5058159;28;20019;-78
2022/10/08 09:55:53;;;;;;;;;;;15.90;93.70;;;;;;5068096;28;19964;-77
2022/10/08 09:58:18;;;;;;;;;;;16.30;93.20;;;;;;5063826;28;19931;-82
2022/10/08 10:00:53;;;;;;;;;;;16.40;92.40;;;;;;5063930;28;19916;-80
2022/10/08 10:03:19;;;;;;;;;;;16.70;91.30;;;;;;5066578;28;20424;-78
2022/10/08 10:05:49;;;;;;;;;;;16.70;90.50;;;;;;5063713;28;19999;-80
2022/10/08 10:08:35;;;;;;;;;;;16.70;90.70;;;;;;5065936;28;19978;-80
2022/10/08 10:11:00;;;;;;;;;;;16.70;88.40;;;;;;5060346;28;19939;-78
2022/10/08 10:13:34;;;;;;;;;;;16.60;88.50;;;;;;5067565;28;20426;-79
2022/10/08 10:16:21;;;;;;;;;;;16.60;86.40;;;;;;5070022;28;19919;-79
2022/10/08 10:18:52;;;;;;;;;;;16.50;87.40;;;;;;5070660;28;20444;-79
2022/10/08 10:21:22;;;;;;;;;;;16.40;87.20;;;;;;5067503;28;19917;-79
2022/10/08 10:23:50;;;;;;;;;;;16.50;87.50;;;;;;5067419;28;19923;-81
2022/10/08 10:26:20;;;;;;;;;;;16.50;86.30;;;;;;5068399;28;19913;-81
2022/10/08 10:28:53;;;;;;;;;;;16.50;85.20;;;;;;5068254;28;20362;-81
2022/10/08 10:31:22;;;;;;;;;;;16.50;84.60;;;;;;5063917;28;19928;-80
2022/10/08 10:33:53;;;;;;;;;;;16.50;85.80;;;;;;5052805;28;19951;-81
2022/10/08 10:36:23;;;;;;;;;;;16.30;84.70;;;;;;5060760;28;19964;-78
2022/10/08 10:39:05;;;;;;;;;;;16.20;84.80;;;;;;5064299;28;19932;-80
2022/10/08 10:41:32;;;;;;;;;;;16.00;86.30;;;;;;5065762;28;19924;-82
2022/10/08 10:44:12;;;;;;;;;;;15.90;87.70;;;;;;5052888;28;19913;-78
2022/10/08 10:46:42;;;;;;;;;;;15.90;88.50;;;;;;5065390;28;19927;-79
2022/10/08 10:49:15;;;;;;;;;;;16.10;87.80;;;;;;5059899;28;19966;-80
2022/10/08 10:51:51;;;;;;;;;;;16.20;86.00;;;;;;5052229;28;20416;-78
2022/10/08 10:54:26;;;;;;;;;;;15.90;88.50;;;;;;5060144;28;19985;-78
2022/10/08 10:57:03;;;;;;;;;;;15.90;89.20;;;;;;5055833;28;19917;-79
2022/10/08 10:59:46;;;;;;;;;;;15.60;89.90;;;;;;5050928;28;19981;-78
2022/10/08 11:02:18;;;;;;;;;;;15.50;91.00;;;;;;5051723;28;20023;-78
2022/10/08 11:05:03;;;;;;;;;;;15.40;90.30;;;;;;5048819;28;19923;-79
2022/10/08 11:08:07;;;;;;;;;;;15.40;92.60;;;;;;5051614;28;19921;-79
2022/10/08 11:10:32;;;;;;;;;;;15.40;94.00;;;;;;5001537;28;20008;-81
2022/10/08 11:13:03;;;;;;;;;;;15.40;94.30;;;;;;5004239;28;20629;-81
2022/10/08 11:15:35;;;;;;;;;;;15.10;98.50;;;;;;5023272;28;19922;-81
2022/10/08 11:18:01;;;;;;;;;;;14.80;99.90;;;;;;5053523;28;20359;-81
2022/10/08 11:20:26;;;;;;;;;;;14.60;99.90;;;;;;5049851;28;19928;-80
2022/10/08 11:23:01;;;;;;;;;;;14.50;99.90;;;;;;5052162;28;19923;-81
2022/10/08 11:25:47;;;;;;;;;;;14.60;99.90;;;;;;5052790;28;19964;-81
2022/10/08 11:28:24;;;;;;;;;;;14.70;99.90;;;;;;5049601;28;20019;-81
2022/10/08 11:31:04;;;;;;;;;;;14.60;99.90;;;;;;5049459;28;19916;-79
2022/10/08 11:33:30;;;;;;;;;;;14.70;99.90;;;;;;5052420;28;19982;-79
2022/10/08 11:36:16;;;;;;;;;;;14.70;99.90;;;;;;5053733;28;19916;-80
2022/10/08 11:38:46;;;;;;;;;;;14.50;99.90;;;;;;5054693;28;20624;-80
2022/10/08 11:41:20;;;;;;;;;;;14.40;99.90;;;;;;5052476;28;19939;-80
2022/10/08 11:43:59;;;;;;;;;;;14.60;99.90;;;;;;5050502;28;19916;-80
2022/10/08 11:46:28;;;;;;;;;;;14.80;99.90;;;;;;5053949;28;20381;-80
2022/10/08 11:48:59;;;;;;;;;;;15.00;99.90;;;;;;5052734;28;19917;-80
2022/10/08 11:51:24;;;;;;;;;;;14.90;99.90;;;;;;5054361;28;20524;-80
2022/10/08 11:54:08;;;;;;;;;;;15.20;99.90;;;;;;5057261;28;19932;-80
2022/10/08 11:56:36;;;;;;;;;;;15.10;99.90;;;;;;5054700;28;20391;-80
2022/10/08 11:59:24;;;;;;;;;;;15.00;99.90;;;;;;5054046;28;20378;-80
2022/10/08 12:01:51;;;;;;;;;;;14.90;99.90;;;;;;5051788;28;19929;-80
2022/10/08 12:04:19;;;;;;;;;;;14.70;99.90;;;;;;5055888;28;20006;-80
2022/10/08 12:06:46;;;;;;;;;;;14.90;99.90;;;;;;5057854;28;19917;-80
2022/10/08 12:09:21;;;;;;;;;;;14.90;99.90;;;;;;5056898;28;19917;-80
2022/10/08 12:11:48;;;;;;;;;;;14.80;99.90;;;;;;5057295;28;20058;-80
2022/10/08 12:14:14;;;;;;;;;;;14.80;99.90;;;;;;5054716;28;19948;-80
2022/10/08 12:16:55;;;;;;;;;;;14.70;99.90;;;;;;5053710;28;20358;-80
2022/10/08 12:19:33;;;;;;;;;;;14.50;99.90;;;;;;5049563;28;20011;-80
2022/10/08 12:21:58;;;;;;;;;;;14.40;99.90;;;;;;5048597;28;19924;-80
2022/10/08 12:24:36;;;;;;;;;;;14.40;99.90;;;;;;5052728;28;19916;-80
2022/10/08 12:27:16;;;;;;;;;;;14.40;99.90;;;;;;5054997;28;19912;-81
2022/10/08 12:29:51;;;;;;;;;;;14.80;99.90;;;;;;5057925;28;20004;-80
2022/10/08 12:32:16;;;;;;;;;;;14.90;99.90;;;;;;5054597;28;20286;-80
2022/10/08 12:34:42;;;;;;;;;;;14.90;99.90;;;;;;5049096;28;19913;-81
2022/10/08 12:37:12;;;;;;;;;;;14.80;99.90;;;;;;5061565;28;19916;-81
2022/10/08 12:39:42;;;;;;;;;;;15.00;99.90;;;;;;5056709;28;19921;-81
2022/10/08 12:42:07;;;;;;;;;;;15.00;99.90;;;;;;5059006;28;19920;-80
2022/10/08 12:44:53;;;;;;;;;;;15.00;99.90;;;;;;5061461;28;19931;-81
2022/10/08 12:47:33;;;;;;;;;;;15.00;99.90;;;;;;5039762;28;20000;-80
2022/10/08 12:49:59;;;;;;;;;;;15.10;99.90;;;;;;5045932;28;19920;-81
2022/10/08 12:52:25;;;;;;;;;;;15.00;99.90;;;;;;5057393;28;19920;-81
2022/10/08 12:54:51;;;;;;;;;;;14.90;99.90;;;;;;5059385;28;20003;-80
2022/10/08 12:57:21;;;;;;;;;;;14.80;99.90;;;;;;5058234;28;19955;-80
2022/10/08 12:59:47;;;;;;;;;;;14.90;99.90;;;;;;5054977;28;19958;-80
2022/10/08 13:02:25;;;;;;;;;;;14.80;99.90;;;;;;5061546;28;19923;-81
2022/10/08 13:04:50;;;;;;;;;;;14.60;99.90;;;;;;5060514;28;19966;-80
2022/10/08 13:07:18;;;;;;;;;;;14.70;99.90;;;;;;5063453;28;19921;-80
2022/10/08 13:09:43;;;;;;;;;;;15.00;99.90;;;;;;5061883;28;19917;-80
2022/10/08 13:12:09;;;;;;;;;;;14.90;99.90;;;;;;5063503;28;19962;-80
2022/10/08 13:15:16;;;;;;;;;;;15.40;99.90;;;;;;5080124;28;19925;-80
2022/10/08 13:17:42;;;;;;;;;;;15.30;99.90;;;;;;5055229;28;19919;-81
2022/10/08 13:20:13;;;;;;;;;;;15.50;99.90;;;;;;5056340;28;19920;-79
2022/10/08 13:22:39;;;;;;;;;;;15.20;99.90;;;;;;5062637;28;19961;-80
2022/10/08 13:25:05;;;;;;;;;;;15.20;99.90;;;;;;5062991;28;20404;-82
2022/10/08 13:27:31;;;;;;;;;;;15.10;99.90;;;;;;5053651;28;19928;-80
2022/10/08 13:29:57;;;;;;;;;;;15.10;99.90;;;;;;5063593;28;19916;-80
2022/10/08 13:32:25;;;;;;;;;;;15.30;99.90;;;;;;5058030;28;19956;-80
2022/10/08 13:34:52;;;;;;;;;;;15.30;99.90;;;;;;5061548;28;19917;-80
2022/10/08 13:37:21;;;;;;;;;;;15.50;99.90;;;;;;5046872;28;19913;-80
2022/10/08 13:39:50;;;;;;;;;;;15.60;99.90;;;;;;5059086;28;20062;-80
2022/10/08 13:42:17;;;;;;;;;;;15.50;99.90;;;;;;5059648;28;19925;-81
2022/10/08 13:44:43;;;;;;;;;;;15.60;99.90;;;;;;5064818;28;19973;-80
2022/10/08 13:47:16;;;;;;;;;;;15.90;99.90;;;;;;5070476;28;19916;-79
2022/10/08 13:49:42;;;;;;;;;;;16.10;99.90;;;;;;5067426;28;20314;-79
2022/10/08 13:52:21;;;;;;;;;;;16.70;99.90;;;;;;5063472;28;19916;-80
2022/10/08 13:54:48;;;;;;;;;;;17.10;99.90;;;;;;5072567;28;19982;-80
2022/10/08 13:57:14;;;;;;;;;;;16.80;99.90;;;;;;5068345;28;20374;-81
2022/10/08 13:59:40;;;;;;;;;;;16.90;95.20;;;;;;5051184;28;19913;-80
2022/10/08 14:02:06;;;;;;;;;;;17.00;93.50;;;;;;5058096;28;19917;-81
2022/10/08 14:04:31;;;;;;;;;;;17.20;96.20;;;;;;5056761;28;19939;-80
2022/10/08 14:06:57;;;;;;;;;;;17.30;98.10;;;;;;5044281;28;20016;-81
2022/10/08 14:09:25;;;;;;;;;;;17.30;87.20;;;;;;5055405;28;19917;-81
2022/10/08 14:11:55;;;;;;;;;;;17.00;92.40;;;;;;5054611;28;19924;-81
2022/10/08 14:14:21;;;;;;;;;;;17.10;93.30;;;;;;5045503;28;20367;-82
2022/10/08 14:16:47;;;;;;;;;;;17.00;90.00;;;;;;5053348;28;20071;-80
2022/10/08 14:19:12;;;;;;;;;;;16.60;88.40;;;;;;5053421;28;20558;-80
2022/10/08 14:21:38;;;;;;;;;;;16.30;88.10;;;;;;5054458;28;19966;-81
2022/10/08 14:24:04;;;;;;;;;;;16.60;78.30;;;;;;5050571;28;19919;-81
2022/10/08 14:26:29;;;;;;;;;;;17.00;76.60;;;;;;5054318;28;19944;-80